Flight Track Log - Related Links

Times and Time Zones

All times are in EDT time to prevent confusion due to time zone crossing. See the SWA1798 flight status page for this flight to view local times or setup timezone preferences in your user account.

Time Position Orientation Groundspeed Altitude Reporting Facility
EDT Latitude Longitude Course Direction KTS MPH feet Rate Location/Type
Wed 07:07:57 AM 40.7000 -74.1667 14° North 156 180 1,100  Level New York TRACON
Wed 07:08:58 AM 40.7500 -74.1500 14° North 240 276 2,800 2,316 Climbing New York TRACON
Wed 07:09:51 AM 40.7833 -74.2167 303° West 254 292 5,500 3,364 Climbing New York TRACON
Wed 07:10:45 AM 40.8000 -74.3000 285° West 257 296 8,800 3,184 Climbing New York TRACON
Wed 07:13:07 AM 40.8031 -74.5514 271° West 323 372 15,900 2,436 Climbing New York Center
Wed 07:14:07 AM 40.8047 -74.6942 271° West 349 402 17,000 1,500 Climbing New York Center
Wed 07:15:07 AM 40.8053 -74.8064 270° West 349 402 18,900 2,450 Climbing New York Center
Wed 07:16:07 AM 40.8022 -74.9489 268° West 349 402 21,900 2,650 Climbing New York Center
Wed 07:17:07 AM 40.8036 -75.0833 271° West 349 402 24,200 2,100 Climbing New York Center
Wed 07:18:07 AM 40.7719 -75.2072 251° West 349 402 26,100 1,900 Climbing New York Center
Wed 07:19:07 AM 40.7297 -75.3333 246° West 367 422 28,000 2,000 Climbing New York Center
Wed 07:20:07 AM 40.6853 -75.4589 245° Southwest 379 436 30,100 2,150 Climbing New York Center
Wed 07:21:07 AM 40.6453 -75.5739 245° Southwest 389 448 32,300 2,200 Climbing New York Center
Wed 07:22:07 AM 40.6006 -75.6936 244° Southwest 383 441 34,500 2,281 Climbing New York Center
Wed 07:23:08 AM 40.5625 -75.8086 246° West 370 426 36,900 1,650 Climbing New York Center
Wed 07:24:07 AM 40.5111 -75.9358 242° Southwest 358 412 37,800 750 Climbing New York Center
Wed 07:25:08 AM 40.4706 -76.0528 246° West 358 412 38,400 893 Climbing New York Center
Wed 07:26:08 AM 40.4256 -76.1719 244° Southwest 358 412 39,600 807 Climbing New York Center
Wed 07:27:07 AM 40.3844 -76.2914 246° West 358 412 40,000 202 Climbing New York Center
Wed 07:28:07 AM 40.3764 -76.4189 265° West 350 403 40,000  Level New York Center
Wed 07:29:07 AM 40.3744 -76.5469 269° West 355 409 40,000  Level New York Center
Wed 07:30:07 AM 40.3739 -76.6831 270° West 355 409 40,000  Level New York Center
Wed 07:31:07 AM 40.3717 -76.8083 269° West 360 414 40,000  Level New York Center
Wed 07:32:07 AM 40.3672 -76.9386 267° West 360 414 40,000  Level New York Center
Wed 07:33:08 AM 40.3664 -77.0694 270° West 365 420 40,000  Level New York Center
Wed 07:34:56 AM 40.3647 -77.2822 269° West 357 411 40,000  Level Cleveland Center
Wed 07:35:57 AM 40.3617 -77.4103 268° West 357 411 40,000  Level Cleveland Center
Wed 07:36:58 AM 40.3583 -77.5642 268° West 356 410 40,000  Level Cleveland Center
Wed 07:38:00 AM 40.3556 -77.6928 268° West 356 410 40,000  Level Cleveland Center
Wed 07:39:01 AM 40.3517 -77.8225 268° West 356 410 40,000  Level Cleveland Center
Wed 07:40:02 AM 40.3486 -77.9489 268° West 355 409 40,000  Level Cleveland Center
Wed 07:41:04 AM 40.3447 -78.0764 268° West 355 409 40,000  Level Cleveland Center
Wed 07:42:05 AM 40.3419 -78.2036 268° West 354 407 40,000  Level Cleveland Center
Wed 07:43:06 AM 40.3375 -78.3292 267° West 353 406 40,000  Level Cleveland Center
Wed 07:44:08 AM 40.3347 -78.4550 268° West 351 404 40,000  Level Cleveland Center
Wed 07:45:09 AM 40.3294 -78.5800 267° West 349 402 40,000  Level Cleveland Center
Wed 07:46:10 AM 40.3253 -78.7311 268° West 349 402 40,000  Level Cleveland Center
Wed 07:47:12 AM 40.3203 -78.8564 267° West 348 400 40,000  Level Cleveland Center
Wed 07:48:13 AM 40.3161 -78.9839 268° West 349 402 40,000  Level Cleveland Center
Wed 07:49:14 AM 40.3128 -79.1117 268° West 353 406 40,000  Level Cleveland Center
Wed 07:50:16 AM 40.3072 -79.2394 267° West 351 404 40,000  Level Cleveland Center
Wed 07:51:17 AM 40.3022 -79.3706 267° West 351 404 40,000  Level Cleveland Center
Wed 07:52:18 AM 40.2969 -79.4983 267° West 351 404 40,000  Level Cleveland Center
Wed 07:53:19 AM 40.2917 -79.6281 267° West 353 406 40,000  Level Cleveland Center
Wed 07:54:21 AM 40.2861 -79.7556 267° West 352 405 40,000  Level Cleveland Center
Wed 07:55:22 AM 40.2803 -79.8850 267° West 354 407 40,000  Level Cleveland Center
Wed 07:56:23 AM 40.2747 -80.0153 267° West 354 407 40,000  Level Cleveland Center
Wed 07:57:25 AM 40.2689 -80.1469 267° West 355 409 40,000  Level Cleveland Center
Wed 07:58:26 AM 40.2633 -80.2781 267° West 355 409 40,000  Level Cleveland Center
Wed 07:59:27 AM 40.2567 -80.4078 266° West 355 409 40,000  Level Cleveland Center
Wed 08:00:29 AM 40.2503 -80.5606 267° West 354 407 40,000  Level Cleveland Center
Wed 08:01:30 AM 40.2439 -80.6900 266° West 354 407 40,000  Level Cleveland Center
Wed 08:02:31 AM 40.2364 -80.8178 266° West 351 404 40,000  Level Cleveland Center
Wed 08:03:33 AM 40.2294 -80.9469 266° West 352 405 40,000  Level Cleveland Center
Wed 08:04:34 AM 40.2239 -81.0597 266° West 352 405 40,000  Level Cleveland Center
Wed 08:05:19 AM 40.2175 -81.1647 265° West 353 406 40,000  Level Indianapolis Center
Wed 08:06:20 AM 40.2108 -81.2936 266° West 353 406 40,000  Level Indianapolis Center
Wed 08:07:21 AM 40.2031 -81.4264 266° West 355 409 40,000  Level Indianapolis Center
Wed 08:08:23 AM 40.1958 -81.5567 266° West 355 409 40,000  Level Indianapolis Center
Wed 08:09:24 AM 40.1875 -81.6900 265° West 360 414 40,000  Level Indianapolis Center
Wed 08:10:25 AM 40.1789 -81.8392 266° West 360 414 40,000  Level Indianapolis Center
Wed 08:11:27 AM 40.1706 -81.9714 265° West 362 417 40,000  Level Indianapolis Center
Wed 08:12:28 AM 40.1619 -82.1028 265° West 363 418 40,000  Level Indianapolis Center
Wed 08:13:29 AM 40.1539 -82.2331 265° West 363 418 40,000  Level Indianapolis Center
Wed 08:14:31 AM 40.1453 -82.3644 265° West 363 418 40,000  Level Indianapolis Center
Wed 08:15:32 AM 40.1361 -82.4953 265° West 363 418 40,000  Level Indianapolis Center
Wed 08:16:34 AM 40.1283 -82.6283 266° West 365 420 40,000  Level Indianapolis Center
Wed 08:17:35 AM 40.1192 -82.7619 265° West 367 422 40,000  Level Indianapolis Center
Wed 08:18:36 AM 40.1075 -82.9228 265° West 368 423 40,000  Level Indianapolis Center
Wed 08:19:38 AM 40.0986 -83.0569 265° West 370 426 40,000  Level Indianapolis Center
Wed 08:20:39 AM 40.0894 -83.1903 265° West 370 426 40,000  Level Indianapolis Center
Wed 08:21:40 AM 40.0800 -83.3233 265° West 371 427 40,000  Level Indianapolis Center
Wed 08:22:42 AM 40.0692 -83.4561 264° West 371 427 40,000  Level Indianapolis Center
Wed 08:23:43 AM 40.0594 -83.5875 265° West 371 427 40,000  Level Indianapolis Center
Wed 08:24:45 AM 40.0478 -83.7458 265° West 371 427 40,000  Level Indianapolis Center
Wed 08:25:46 AM 40.0372 -83.8775 264° West 371 427 40,000  Level Indianapolis Center
Wed 08:26:48 AM 40.0264 -84.0081 264° West 369 425 40,000  Level Indianapolis Center
Wed 08:27:49 AM 40.0164 -84.1406 264° West 368 423 40,000  Level Indianapolis Center
Wed 08:28:50 AM 40.0069 -84.2731 265° West 368 423 40,000  Level Indianapolis Center
Wed 08:29:52 AM 39.9942 -84.4053 263° West 368 423 40,000  Level Indianapolis Center
Wed 08:30:53 AM 39.9828 -84.5394 264° West 369 425 40,000  Level Indianapolis Center
Wed 08:31:55 AM 39.9694 -84.7014 264° West 371 427 40,000  Level Indianapolis Center
Wed 08:32:56 AM 39.9569 -84.8350 263° West 372 428 40,000  Level Indianapolis Center
Wed 08:33:58 AM 39.9464 -84.9697 264° West 372 428 40,000  Level Indianapolis Center
Wed 08:34:59 AM 39.9328 -85.1047 263° West 373 429 40,000  Level Indianapolis Center
Wed 08:36:00 AM 39.9228 -85.2361 264° West 372 428 40,000  Level Indianapolis Center
Wed 08:37:02 AM 39.9103 -85.3678 263° West 370 426 40,000  Level Indianapolis Center
Wed 08:38:03 AM 39.8975 -85.5008 263° West 370 426 40,000  Level Indianapolis Center
Wed 08:39:04 AM 39.8858 -85.6358 264° West 372 428 40,000  Level Indianapolis Center
Wed 08:40:06 AM 39.8728 -85.7717 263° West 376 433 40,000  Level Indianapolis Center
Wed 08:41:07 AM 39.8567 -85.9369 263° West 382 440 40,000  Level Indianapolis Center
Wed 08:42:09 AM 39.8453 -86.0628 263° West 383 441 40,000  Level Indianapolis Center
Wed 08:43:10 AM 39.8303 -86.2003 262° West 383 441 40,000  Level Indianapolis Center
Wed 08:44:11 AM 39.8183 -86.3397 264° West 383 441 40,000  Level Indianapolis Center
Wed 08:45:12 AM 39.7883 -86.4742 254° West 384 442 40,000 -341 Level Indianapolis Center
Wed 08:46:14 AM 39.7494 -86.6333 252° West 384 442 39,300 -780 Descending Indianapolis Center
Wed 08:47:15 AM 39.7175 -86.7606 252° West 377 434 38,400 -934 Descending Indianapolis Center
Wed 08:48:16 AM 39.6861 -86.8897 253° West 374 430 37,400 -976 Descending Indianapolis Center
Wed 08:49:18 AM 39.6536 -87.0200 252° West 375 432 36,400 -927 Descending Indianapolis Center
Wed 08:50:19 AM 39.6217 -87.1472 252° West 375 432 35,500 -689 Descending Indianapolis Center
Wed 08:51:20 AM 39.5900 -87.2744 252° West 374 430 35,000 -244 Descending Indianapolis Center
Wed 08:52:22 AM 39.5567 -87.4000 251° West 373 429 35,000  Level Indianapolis Center
Wed 08:53:23 AM 39.5253 -87.5275 252° West 371 427 35,000  Level Indianapolis Center
Wed 08:54:24 AM 39.4931 -87.6511 251° West 369 425 35,000  Level Indianapolis Center
Wed 08:55:26 AM 39.4617 -87.7772 252° West 369 425 35,000 -878 Level Indianapolis Center
Wed 08:56:27 AM 39.4269 -87.9067 251° West 368 423 33,200 -2,439 Descending Indianapolis Center
Wed 08:57:29 AM 39.3908 -88.0478 252° West 365 420 30,000 -1,561 Descending Indianapolis Center
Wed 08:58:30 AM 39.3603 -88.1697 252° West 363 418 30,000  Level Indianapolis Center
Wed 08:59:31 AM 39.3306 -88.2872 252° West 353 406 30,000  Level Indianapolis Center
Wed 09:00:33 AM 39.2978 -88.4067 251° West 350 403 30,000  Level Indianapolis Center
Wed 09:01:34 AM 39.2658 -88.5269 251° West 350 403 30,000 -98 Level Indianapolis Center
Wed 09:02:36 AM 39.2328 -88.6475 251° West 351 404 29,800 -1,171 Descending Indianapolis Center
Wed 09:03:37 AM 39.2019 -88.7647 251° West 351 404 27,600 -2,098 Descending Indianapolis Center
Wed 09:04:39 AM 39.1697 -88.8775 250° West 344 396 25,500 -2,000 Descending Indianapolis Center
Wed 09:05:40 AM 39.1419 -88.9836 251° West 325 374 23,500 -2,049 Descending Indianapolis Center
Wed 09:06:42 AM 39.1119 -89.0983 251° West 327 376 21,300 -2,146 Descending Indianapolis Center
Wed 09:07:43 AM 39.0814 -89.2150 251° West 335 386 19,100 -2,410 Descending Indianapolis Center
Wed 09:08:44 AM 39.0489 -89.3558 253° West 340 391 16,400 -2,217 Descending Indianapolis Center
Wed 09:10:01 AM 39.0175 -89.4967 254° West 334 384 14,000 -1,913 Descending Kansas City Center
Wed 09:11:02 AM 38.9881 -89.6019 250° West 322 371 12,000 -1,918 Descending Kansas City Center
Wed 09:12:03 AM 38.9250 -89.6847 226° Southwest 324 373 10,100 -1,122 Descending Kansas City Center
Wed 09:13:05 AM 38.8625 -89.7619 224° Southwest 321 369 9,700 -878 Descending Kansas City Center
Wed 09:14:06 AM 38.8058 -89.8333 224° Southwest 303 349 8,300 -1,512 Descending Kansas City Center
Wed 09:15:08 AM 38.7500 -89.9053 225° Southwest 291 335 6,600 -1,512 Descending Kansas City Center
Wed 09:16:09 AM 38.6936 -89.9764 225° Southwest 288 331 5,200 -1,415 Descending Kansas City Center
Wed 09:17:11 AM 38.6356 -90.0433 222° Southwest 285 328 3,700 -829 Descending Kansas City Center
Wed 09:18:12 AM 38.6303 -90.1208 265° West 256 295 3,500 -146 Descending Kansas City Center
Wed 09:19:14 AM 38.6672 -90.1956 302° West 225 259 3,400 -537 Descending Kansas City Center
Wed 09:20:15 AM 38.6933 -90.2481 303° West 198 228 2,400 -829 Descending Kansas City Center
Wed 09:21:17 AM 38.7128 -90.2853 304° West 152 175 1,700 -683 Descending Kansas City Center
Wed 09:22:18 AM 38.7300 -90.3225 301° West 131 151 1,000 -537 Descending Kansas City Center
Wed 09:23:20 AM 38.7508 -90.3636 303° West 127 146 600 -387 Descending Kansas City Center

Login

Don't have an account? Register now (free) for customized features, flight alerts, and more!